sensor_id;sensor_type;location;lat;lon;timestamp;P1;durP1;ratioP1;P2;durP2;ratioP2
19149;SDS011;9707;49.158;8.632;2023-12-04T00:00:22;10.13;;;7.47;;
19149;SDS011;9707;49.158;8.632;2023-12-04T00:02:47;12.32;;;9.70;;
19149;SDS011;9707;49.158;8.632;2023-12-04T00:05:12;13.20;;;9.80;;
19149;SDS011;9707;49.158;8.632;2023-12-04T00:07:38;10.73;;;8.30;;
19149;SDS011;9707;49.158;8.632;2023-12-04T00:10:03;14.65;;;9.90;;
19149;SDS011;9707;49.158;8.632;2023-12-04T00:12:29;11.82;;;9.25;;
19149;SDS011;9707;49.158;8.632;2023-12-04T00:14:54;12.77;;;9.63;;
19149;SDS011;9707;49.158;8.632;2023-12-04T00:17:19;13.25;;;9.77;;
19149;SDS011;9707;49.158;8.632;2023-12-04T00:19:44;13.25;;;9.75;;
19149;SDS011;9707;49.158;8.632;2023-12-04T00:22:10;13.55;;;10.15;;
19149;SDS011;9707;49.158;8.632;2023-12-04T00:24:35;13.48;;;9.55;;
19149;SDS011;9707;49.158;8.632;2023-12-04T00:27:00;13.20;;;10.18;;
19149;SDS011;9707;49.158;8.632;2023-12-04T00:29:25;12.10;;;9.68;;
19149;SDS011;9707;49.158;8.632;2023-12-04T00:31:51;10.50;;;7.38;;
19149;SDS011;9707;49.158;8.632;2023-12-04T00:34:16;9.82;;;7.60;;
19149;SDS011;9707;49.158;8.632;2023-12-04T00:36:41;12.85;;;9.38;;
19149;SDS011;9707;49.158;8.632;2023-12-04T00:39:06;13.40;;;9.48;;
19149;SDS011;9707;49.158;8.632;2023-12-04T00:41:32;8.90;;;6.88;;
19149;SDS011;9707;49.158;8.632;2023-12-04T00:43:57;14.95;;;10.15;;
19149;SDS011;9707;49.158;8.632;2023-12-04T00:46:22;11.23;;;8.98;;
19149;SDS011;9707;49.158;8.632;2023-12-04T00:48:47;12.73;;;9.40;;
19149;SDS011;9707;49.158;8.632;2023-12-04T00:51:13;12.75;;;10.07;;
19149;SDS011;9707;49.158;8.632;2023-12-04T00:53:38;12.57;;;9.35;;
19149;SDS011;9707;49.158;8.632;2023-12-04T00:56:04;12.93;;;8.93;;
19149;SDS011;9707;49.158;8.632;2023-12-04T00:58:30;13.90;;;9.80;;
19149;SDS011;9707;49.158;8.632;2023-12-04T01:00:55;14.23;;;10.10;;
19149;SDS011;9707;49.158;8.632;2023-12-04T01:03:22;14.20;;;8.82;;
19149;SDS011;9707;49.158;8.632;2023-12-04T01:05:47;13.43;;;9.68;;
19149;SDS011;9707;49.158;8.632;2023-12-04T01:08:12;13.27;;;9.85;;
19149;SDS011;9707;49.158;8.632;2023-12-04T01:10:38;12.93;;;9.45;;
19149;SDS011;9707;49.158;8.632;2023-12-04T01:13:04;11.27;;;8.48;;
19149;SDS011;9707;49.158;8.632;2023-12-04T01:15:30;11.63;;;8.73;;
19149;SDS011;9707;49.158;8.632;2023-12-04T01:17:55;11.35;;;9.23;;
19149;SDS011;9707;49.158;8.632;2023-12-04T01:20:20;11.27;;;8.45;;
19149;SDS011;9707;49.158;8.632;2023-12-04T01:22:45;13.48;;;9.65;;
19149;SDS011;9707;49.158;8.632;2023-12-04T01:25:11;10.93;;;8.73;;
19149;SDS011;9707;49.158;8.632;2023-12-04T01:27:36;13.50;;;10.02;;
19149;SDS011;9707;49.158;8.632;2023-12-04T01:30:02;10.50;;;8.23;;
19149;SDS011;9707;49.158;8.632;2023-12-04T01:32:28;11.73;;;8.55;;
19149;SDS011;9707;49.158;8.632;2023-12-04T01:34:54;12.85;;;9.38;;
19149;SDS011;9707;49.158;8.632;2023-12-04T01:37:19;11.82;;;8.60;;
19149;SDS011;9707;49.158;8.632;2023-12-04T01:39:44;7.78;;;6.10;;
19149;SDS011;9707;49.158;8.632;2023-12-04T01:42:09;11.38;;;8.45;;
19149;SDS011;9707;49.158;8.632;2023-12-04T01:44:35;10.55;;;7.50;;
19149;SDS011;9707;49.158;8.632;2023-12-04T01:47:01;10.43;;;8.23;;
19149;SDS011;9707;49.158;8.632;2023-12-04T01:49:27;10.95;;;8.40;;
19149;SDS011;9707;49.158;8.632;2023-12-04T01:51:52;11.20;;;7.68;;
19149;SDS011;9707;49.158;8.632;2023-12-04T01:54:17;7.45;;;6.10;;
19149;SDS011;9707;49.158;8.632;2023-12-04T01:56:44;9.80;;;7.07;;
19149;SDS011;9707;49.158;8.632;2023-12-04T01:59:09;8.30;;;6.10;;
19149;SDS011;9707;49.158;8.632;2023-12-04T02:01:34;8.13;;;6.40;;
19149;SDS011;9707;49.158;8.632;2023-12-04T02:04:01;8.18;;;6.10;;
19149;SDS011;9707;49.158;8.632;2023-12-04T02:06:27;7.55;;;6.22;;
19149;SDS011;9707;49.158;8.632;2023-12-04T02:08:52;7.60;;;5.50;;
19149;SDS011;9707;49.158;8.632;2023-12-04T02:11:18;6.70;;;5.13;;
19149;SDS011;9707;49.158;8.632;2023-12-04T02:13:43;8.70;;;6.18;;
19149;SDS011;9707;49.158;8.632;2023-12-04T02:16:09;7.70;;;6.05;;
19149;SDS011;9707;49.158;8.632;2023-12-04T02:18:37;7.63;;;5.88;;
19149;SDS011;9707;49.158;8.632;2023-12-04T02:21:02;8.82;;;6.05;;
19149;SDS011;9707;49.158;8.632;2023-12-04T02:23:28;7.78;;;5.28;;
19149;SDS011;9707;49.158;8.632;2023-12-04T02:25:54;8.30;;;5.45;;
19149;SDS011;9707;49.158;8.632;2023-12-04T02:28:24;6.07;;;4.82;;
19149;SDS011;9707;49.158;8.632;2023-12-04T02:30:55;9.00;;;6.60;;
19149;SDS011;9707;49.158;8.632;2023-12-04T02:33:23;8.27;;;5.80;;
19149;SDS011;9707;49.158;8.632;2023-12-04T02:35:50;7.63;;;5.20;;
19149;SDS011;9707;49.158;8.632;2023-12-04T02:38:16;8.13;;;5.78;;
19149;SDS011;9707;49.158;8.632;2023-12-04T02:40:43;7.18;;;4.95;;
19149;SDS011;9707;49.158;8.632;2023-12-04T02:43:08;6.13;;;5.00;;
19149;SDS011;9707;49.158;8.632;2023-12-04T02:45:34;7.03;;;5.63;;
19149;SDS011;9707;49.158;8.632;2023-12-04T02:47:59;10.40;;;7.25;;
19149;SDS011;9707;49.158;8.632;2023-12-04T02:50:24;8.05;;;5.93;;
19149;SDS011;9707;49.158;8.632;2023-12-04T02:52:49;6.15;;;4.82;;
19149;SDS011;9707;49.158;8.632;2023-12-04T02:55:15;5.78;;;4.10;;
19149;SDS011;9707;49.158;8.632;2023-12-04T02:57:40;8.18;;;6.57;;
19149;SDS011;9707;49.158;8.632;2023-12-04T03:00:06;6.57;;;4.72;;
19149;SDS011;9707;49.158;8.632;2023-12-04T03:02:31;5.13;;;3.88;;
19149;SDS011;9707;49.158;8.632;2023-12-04T03:04:56;5.63;;;4.15;;
19149;SDS011;9707;49.158;8.632;2023-12-04T03:07:22;6.03;;;4.80;;
19149;SDS011;9707;49.158;8.632;2023-12-04T03:09:49;6.50;;;4.45;;
19149;SDS011;9707;49.158;8.632;2023-12-04T03:12:14;6.90;;;4.90;;
19149;SDS011;9707;49.158;8.632;2023-12-04T03:14:39;6.03;;;4.18;;
19149;SDS011;9707;49.158;8.632;2023-12-04T03:17:05;6.68;;;4.47;;
19149;SDS011;9707;49.158;8.632;2023-12-04T03:19:31;6.78;;;5.20;;
19149;SDS011;9707;49.158;8.632;2023-12-04T03:21:56;5.78;;;4.00;;
19149;SDS011;9707;49.158;8.632;2023-12-04T03:24:21;5.45;;;3.92;;
19149;SDS011;9707;49.158;8.632;2023-12-04T03:26:46;5.07;;;4.03;;
19149;SDS011;9707;49.158;8.632;2023-12-04T03:29:12;5.80;;;3.45;;
19149;SDS011;9707;49.158;8.632;2023-12-04T03:31:38;5.72;;;4.72;;
19149;SDS011;9707;49.158;8.632;2023-12-04T03:34:03;6.30;;;4.03;;
19149;SDS011;9707;49.158;8.632;2023-12-04T03:36:28;5.00;;;4.13;;
19149;SDS011;9707;49.158;8.632;2023-12-04T03:38:54;5.00;;;3.60;;
19149;SDS011;9707;49.158;8.632;2023-12-04T03:41:19;5.25;;;3.80;;
19149;SDS011;9707;49.158;8.632;2023-12-04T03:43:44;5.72;;;3.40;;
19149;SDS011;9707;49.158;8.632;2023-12-04T03:46:10;6.28;;;4.47;;
19149;SDS011;9707;49.158;8.632;2023-12-04T03:48:35;6.68;;;4.07;;
19149;SDS011;9707;49.158;8.632;2023-12-04T03:51:00;6.05;;;4.40;;
19149;SDS011;9707;49.158;8.632;2023-12-04T03:53:26;5.78;;;4.00;;
19149;SDS011;9707;49.158;8.632;2023-12-04T03:55:51;5.68;;;4.28;;
19149;SDS011;9707;49.158;8.632;2023-12-04T03:58:17;4.57;;;3.72;;
19149;SDS011;9707;49.158;8.632;2023-12-04T04:00:42;5.82;;;4.20;;
19149;SDS011;9707;49.158;8.632;2023-12-04T04:03:08;5.50;;;3.83;;
19149;SDS011;9707;49.158;8.632;2023-12-04T04:05:34;5.75;;;4.07;;
19149;SDS011;9707;49.158;8.632;2023-12-04T04:07:59;6.18;;;4.60;;
19149;SDS011;9707;49.158;8.632;2023-12-04T04:10:25;6.07;;;4.05;;
19149;SDS011;9707;49.158;8.632;2023-12-04T04:12:50;6.30;;;4.30;;
19149;SDS011;9707;49.158;8.632;2023-12-04T04:15:15;6.20;;;4.43;;
19149;SDS011;9707;49.158;8.632;2023-12-04T04:17:41;5.90;;;4.32;;
19149;SDS011;9707;49.158;8.632;2023-12-04T04:20:06;7.32;;;4.10;;
19149;SDS011;9707;49.158;8.632;2023-12-04T04:22:32;5.57;;;4.30;;
19149;SDS011;9707;49.158;8.632;2023-12-04T04:25:02;7.32;;;4.85;;
19149;SDS011;9707;49.158;8.632;2023-12-04T04:27:28;5.00;;;4.00;;
19149;SDS011;9707;49.158;8.632;2023-12-04T04:29:53;7.35;;;4.78;;
19149;SDS011;9707;49.158;8.632;2023-12-04T04:32:19;7.55;;;4.78;;
19149;SDS011;9707;49.158;8.632;2023-12-04T04:34:44;5.25;;;3.58;;
19149;SDS011;9707;49.158;8.632;2023-12-04T04:37:09;7.55;;;5.00;;
19149;SDS011;9707;49.158;8.632;2023-12-04T04:39:34;6.47;;;4.80;;
19149;SDS011;9707;49.158;8.632;2023-12-04T04:42:00;7.43;;;5.70;;
19149;SDS011;9707;49.158;8.632;2023-12-04T04:44:25;8.13;;;5.68;;
19149;SDS011;9707;49.158;8.632;2023-12-04T04:46:50;7.97;;;5.72;;
19149;SDS011;9707;49.158;8.632;2023-12-04T04:49:16;6.18;;;4.60;;
19149;SDS011;9707;49.158;8.632;2023-12-04T04:51:41;4.88;;;3.33;;
19149;SDS011;9707;49.158;8.632;2023-12-04T04:54:07;6.25;;;4.95;;
19149;SDS011;9707;49.158;8.632;2023-12-04T04:56:32;5.80;;;4.65;;
19149;SDS011;9707;49.158;8.632;2023-12-04T04:58:57;9.32;;;5.97;;
19149;SDS011;9707;49.158;8.632;2023-12-04T05:01:23;6.32;;;4.75;;
19149;SDS011;9707;49.158;8.632;2023-12-04T05:03:48;4.50;;;3.53;;
19149;SDS011;9707;49.158;8.632;2023-12-04T05:06:13;6.57;;;4.75;;
19149;SDS011;9707;49.158;8.632;2023-12-04T05:08:39;7.40;;;5.50;;
19149;SDS011;9707;49.158;8.632;2023-12-04T05:11:04;3.58;;;3.08;;
19149;SDS011;9707;49.158;8.632;2023-12-04T05:13:29;4.95;;;4.25;;
19149;SDS011;9707;49.158;8.632;2023-12-04T05:15:55;5.60;;;3.85;;
19149;SDS011;9707;49.158;8.632;2023-12-04T05:18:20;7.50;;;5.35;;
19149;SDS011;9707;49.158;8.632;2023-12-04T05:20:45;5.05;;;3.72;;
19149;SDS011;9707;49.158;8.632;2023-12-04T05:23:11;5.50;;;4.50;;
19149;SDS011;9707;49.158;8.632;2023-12-04T05:25:36;6.03;;;4.60;;
19149;SDS011;9707;49.158;8.632;2023-12-04T05:28:01;5.03;;;3.80;;
19149;SDS011;9707;49.158;8.632;2023-12-04T05:30:26;8.35;;;5.20;;
19149;SDS011;9707;49.158;8.632;2023-12-04T05:32:52;6.30;;;5.13;;
19149;SDS011;9707;49.158;8.632;2023-12-04T05:35:17;6.65;;;4.93;;
19149;SDS011;9707;49.158;8.632;2023-12-04T05:37:42;8.48;;;6.70;;
19149;SDS011;9707;49.158;8.632;2023-12-04T05:40:08;7.07;;;5.70;;
19149;SDS011;9707;49.158;8.632;2023-12-04T05:42:34;7.22;;;5.80;;
19149;SDS011;9707;49.158;8.632;2023-12-04T05:44:59;7.25;;;5.95;;
19149;SDS011;9707;49.158;8.632;2023-12-04T05:47:25;8.27;;;6.38;;
19149;SDS011;9707;49.158;8.632;2023-12-04T05:49:51;8.07;;;5.78;;
19149;SDS011;9707;49.158;8.632;2023-12-04T05:52:16;7.25;;;5.47;;
19149;SDS011;9707;49.158;8.632;2023-12-04T05:54:41;8.35;;;6.38;;
19149;SDS011;9707;49.158;8.632;2023-12-04T05:57:06;7.97;;;6.10;;
19149;SDS011;9707;49.158;8.632;2023-12-04T05:59:32;8.98;;;6.25;;
19149;SDS011;9707;49.158;8.632;2023-12-04T06:01:57;7.80;;;5.10;;
19149;SDS011;9707;49.158;8.632;2023-12-04T06:04:22;9.30;;;6.40;;
19149;SDS011;9707;49.158;8.632;2023-12-04T06:06:47;9.32;;;6.85;;
19149;SDS011;9707;49.158;8.632;2023-12-04T06:09:13;17.13;;;11.85;;
19149;SDS011;9707;49.158;8.632;2023-12-04T06:11:40;13.73;;;10.15;;
19149;SDS011;9707;49.158;8.632;2023-12-04T06:14:05;12.52;;;9.07;;
19149;SDS011;9707;49.158;8.632;2023-12-04T06:16:30;10.15;;;7.75;;
19149;SDS011;9707;49.158;8.632;2023-12-04T06:18:56;8.00;;;6.38;;
19149;SDS011;9707;49.158;8.632;2023-12-04T06:21:21;7.30;;;5.68;;
19149;SDS011;9707;49.158;8.632;2023-12-04T06:23:46;7.90;;;5.78;;
19149;SDS011;9707;49.158;8.632;2023-12-04T06:26:12;6.07;;;4.47;;
19149;SDS011;9707;49.158;8.632;2023-12-04T06:28:37;7.20;;;5.75;;
19149;SDS011;9707;49.158;8.632;2023-12-04T06:31:03;7.18;;;5.65;;
19149;SDS011;9707;49.158;8.632;2023-12-04T06:33:29;8.52;;;6.93;;
19149;SDS011;9707;49.158;8.632;2023-12-04T06:35:54;9.38;;;6.38;;
19149;SDS011;9707;49.158;8.632;2023-12-04T06:38:20;7.90;;;5.22;;
19149;SDS011;9707;49.158;8.632;2023-12-04T06:40:49;7.07;;;5.60;;
19149;SDS011;9707;49.158;8.632;2023-12-04T06:43:14;9.68;;;6.65;;
19149;SDS011;9707;49.158;8.632;2023-12-04T06:45:43;6.97;;;5.18;;
19149;SDS011;9707;49.158;8.632;2023-12-04T06:48:14;6.70;;;5.40;;
19149;SDS011;9707;49.158;8.632;2023-12-04T06:50:40;7.30;;;5.70;;
19149;SDS011;9707;49.158;8.632;2023-12-04T06:53:05;7.90;;;6.10;;
19149;SDS011;9707;49.158;8.632;2023-12-04T06:55:31;7.30;;;5.60;;
19149;SDS011;9707;49.158;8.632;2023-12-04T06:57:56;8.40;;;5.95;;
19149;SDS011;9707;49.158;8.632;2023-12-04T07:00:21;7.68;;;5.43;;
19149;SDS011;9707;49.158;8.632;2023-12-04T07:02:46;7.95;;;6.35;;
19149;SDS011;9707;49.158;8.632;2023-12-04T07:05:12;10.50;;;7.15;;
19149;SDS011;9707;49.158;8.632;2023-12-04T07:07:37;7.60;;;6.13;;
19149;SDS011;9707;49.158;8.632;2023-12-04T07:10:02;8.70;;;6.03;;
19149;SDS011;9707;49.158;8.632;2023-12-04T07:12:28;8.00;;;6.28;;
19149;SDS011;9707;49.158;8.632;2023-12-04T07:14:53;9.70;;;6.40;;
19149;SDS011;9707;49.158;8.632;2023-12-04T07:17:18;6.50;;;4.65;;
19149;SDS011;9707;49.158;8.632;2023-12-04T07:19:44;8.70;;;6.93;;
19149;SDS011;9707;49.158;8.632;2023-12-04T07:22:10;9.18;;;6.28;;
19149;SDS011;9707;49.158;8.632;2023-12-04T07:24:35;8.40;;;6.20;;
19149;SDS011;9707;49.158;8.632;2023-12-04T07:27:01;9.20;;;7.07;;
19149;SDS011;9707;49.158;8.632;2023-12-04T07:29:26;10.55;;;7.57;;
19149;SDS011;9707;49.158;8.632;2023-12-04T07:31:51;11.38;;;6.90;;
19149;SDS011;9707;49.158;8.632;2023-12-04T07:34:16;6.95;;;4.70;;
19149;SDS011;9707;49.158;8.632;2023-12-04T07:36:42;9.45;;;6.18;;
19149;SDS011;9707;49.158;8.632;2023-12-04T07:39:09;9.85;;;6.10;;
19149;SDS011;9707;49.158;8.632;2023-12-04T07:41:34;6.85;;;4.78;;
19149;SDS011;9707;49.158;8.632;2023-12-04T07:43:59;7.47;;;6.30;;
19149;SDS011;9707;49.158;8.632;2023-12-04T07:46:25;6.88;;;5.38;;
19149;SDS011;9707;49.158;8.632;2023-12-04T07:48:50;10.57;;;6.65;;
19149;SDS011;9707;49.158;8.632;2023-12-04T07:51:16;9.73;;;6.97;;
19149;SDS011;9707;49.158;8.632;2023-12-04T07:53:41;10.80;;;6.55;;
19149;SDS011;9707;49.158;8.632;2023-12-04T07:56:07;8.23;;;6.22;;
19149;SDS011;9707;49.158;8.632;2023-12-04T07:58:32;8.95;;;6.75;;
19149;SDS011;9707;49.158;8.632;2023-12-04T08:00:58;7.35;;;5.90;;
19149;SDS011;9707;49.158;8.632;2023-12-04T08:03:24;8.95;;;6.70;;
19149;SDS011;9707;49.158;8.632;2023-12-04T08:05:50;8.30;;;6.32;;
19149;SDS011;9707;49.158;8.632;2023-12-04T08:08:15;7.30;;;5.78;;
19149;SDS011;9707;49.158;8.632;2023-12-04T08:10:41;6.13;;;4.22;;
19149;SDS011;9707;49.158;8.632;2023-12-04T08:13:06;6.35;;;4.20;;
19149;SDS011;9707;49.158;8.632;2023-12-04T08:15:31;9.30;;;6.90;;
19149;SDS011;9707;49.158;8.632;2023-12-04T08:17:57;12.40;;;7.43;;
19149;SDS011;9707;49.158;8.632;2023-12-04T08:20:22;7.55;;;5.25;;
19149;SDS011;9707;49.158;8.632;2023-12-04T08:22:48;9.50;;;6.55;;
19149;SDS011;9707;49.158;8.632;2023-12-04T08:25:14;7.30;;;6.18;;
19149;SDS011;9707;49.158;8.632;2023-12-04T08:27:42;10.48;;;7.18;;
19149;SDS011;9707;49.158;8.632;2023-12-04T08:30:07;10.55;;;7.80;;
19149;SDS011;9707;49.158;8.632;2023-12-04T08:32:33;9.32;;;7.60;;
19149;SDS011;9707;49.158;8.632;2023-12-04T08:34:58;15.48;;;9.38;;
19149;SDS011;9707;49.158;8.632;2023-12-04T08:37:24;6.05;;;4.38;;
19149;SDS011;9707;49.158;8.632;2023-12-04T08:39:49;6.35;;;4.55;;
19149;SDS011;9707;49.158;8.632;2023-12-04T08:42:14;6.38;;;4.90;;
19149;SDS011;9707;49.158;8.632;2023-12-04T08:44:39;7.68;;;5.22;;
19149;SDS011;9707;49.158;8.632;2023-12-04T08:47:05;8.80;;;6.10;;
19149;SDS011;9707;49.158;8.632;2023-12-04T08:49:30;10.02;;;5.63;;
19149;SDS011;9707;49.158;8.632;2023-12-04T08:51:57;6.78;;;4.57;;
19149;SDS011;9707;49.158;8.632;2023-12-04T08:54:23;8.45;;;4.60;;
19149;SDS011;9707;49.158;8.632;2023-12-04T08:56:49;7.75;;;4.72;;
19149;SDS011;9707;49.158;8.632;2023-12-04T08:59:14;11.90;;;6.80;;
19149;SDS011;9707;49.158;8.632;2023-12-04T09:01:41;10.77;;;6.88;;
19149;SDS011;9707;49.158;8.632;2023-12-04T09:04:07;11.30;;;7.57;;
19149;SDS011;9707;49.158;8.632;2023-12-04T09:06:33;7.68;;;5.15;;
19149;SDS011;9707;49.158;8.632;2023-12-04T09:08:58;12.70;;;6.50;;
19149;SDS011;9707;49.158;8.632;2023-12-04T09:11:24;5.65;;;4.13;;
19149;SDS011;9707;49.158;8.632;2023-12-04T09:13:49;12.68;;;5.10;;
19149;SDS011;9707;49.158;8.632;2023-12-04T09:16:14;6.57;;;4.30;;
19149;SDS011;9707;49.158;8.632;2023-12-04T09:18:39;7.07;;;4.40;;
19149;SDS011;9707;49.158;8.632;2023-12-04T09:21:05;8.45;;;4.63;;
19149;SDS011;9707;49.158;8.632;2023-12-04T09:23:30;8.85;;;5.60;;
19149;SDS011;9707;49.158;8.632;2023-12-04T09:25:55;10.25;;;4.00;;
19149;SDS011;9707;49.158;8.632;2023-12-04T09:28:21;11.25;;;4.82;;
19149;SDS011;9707;49.158;8.632;2023-12-04T09:30:46;9.57;;;4.82;;
19149;SDS011;9707;49.158;8.632;2023-12-04T09:33:11;10.20;;;4.55;;
19149;SDS011;9707;49.158;8.632;2023-12-04T09:35:36;7.60;;;4.72;;
19149;SDS011;9707;49.158;8.632;2023-12-04T09:38:02;7.40;;;3.58;;
19149;SDS011;9707;49.158;8.632;2023-12-04T09:40:27;15.43;;;6.70;;
19149;SDS011;9707;49.158;8.632;2023-12-04T09:42:53;7.10;;;4.28;;
19149;SDS011;9707;49.158;8.632;2023-12-04T09:45:18;7.38;;;5.40;;
19149;SDS011;9707;49.158;8.632;2023-12-04T09:47:45;6.45;;;4.45;;
19149;SDS011;9707;49.158;8.632;2023-12-04T09:50:12;9.25;;;4.47;;
19149;SDS011;9707;49.158;8.632;2023-12-04T09:52:39;10.95;;;5.80;;
19149;SDS011;9707;49.158;8.632;2023-12-04T09:55:04;8.90;;;5.82;;
19149;SDS011;9707;49.158;8.632;2023-12-04T09:57:30;9.18;;;4.50;;
19149;SDS011;9707;49.158;8.632;2023-12-04T09:59:56;8.57;;;4.88;;
19149;SDS011;9707;49.158;8.632;2023-12-04T10:02:25;8.80;;;5.20;;
19149;SDS011;9707;49.158;8.632;2023-12-04T10:04:51;9.90;;;5.40;;
19149;SDS011;9707;49.158;8.632;2023-12-04T10:07:17;7.18;;;4.72;;
19149;SDS011;9707;49.158;8.632;2023-12-04T10:09:42;8.70;;;4.82;;
19149;SDS011;9707;49.158;8.632;2023-12-04T10:12:07;10.90;;;6.65;;
19149;SDS011;9707;49.158;8.632;2023-12-04T10:14:32;8.30;;;4.50;;
19149;SDS011;9707;49.158;8.632;2023-12-04T10:16:58;9.65;;;5.72;;
19149;SDS011;9707;49.158;8.632;2023-12-04T10:19:25;9.30;;;5.82;;
19149;SDS011;9707;49.158;8.632;2023-12-04T10:21:54;7.45;;;4.60;;
19149;SDS011;9707;49.158;8.632;2023-12-04T10:24:53;7.47;;;5.90;;
19149;SDS011;9707;49.158;8.632;2023-12-04T10:27:12;6.95;;;4.95;;
19149;SDS011;9707;49.158;8.632;2023-12-04T10:29:39;8.60;;;4.95;;
19149;SDS011;9707;49.158;8.632;2023-12-04T10:32:20;7.65;;;4.18;;
19149;SDS011;9707;49.158;8.632;2023-12-04T10:34:48;10.77;;;5.07;;
19149;SDS011;9707;49.158;8.632;2023-12-04T10:37:14;9.35;;;4.43;;
19149;SDS011;9707;49.158;8.632;2023-12-04T10:39:45;7.20;;;4.50;;
19149;SDS011;9707;49.158;8.632;2023-12-04T10:42:12;7.13;;;4.82;;
19149;SDS011;9707;49.158;8.632;2023-12-04T10:44:48;11.60;;;5.90;;
19149;SDS011;9707;49.158;8.632;2023-12-04T10:47:13;10.88;;;5.47;;
19149;SDS011;9707;49.158;8.632;2023-12-04T10:49:40;10.13;;;6.53;;
19149;SDS011;9707;49.158;8.632;2023-12-04T10:52:07;7.70;;;4.82;;
19149;SDS011;9707;49.158;8.632;2023-12-04T10:54:34;7.20;;;5.22;;
19149;SDS011;9707;49.158;8.632;2023-12-04T10:57:00;7.80;;;4.47;;
19149;SDS011;9707;49.158;8.632;2023-12-04T10:59:30;6.88;;;4.75;;
19149;SDS011;9707;49.158;8.632;2023-12-04T11:02:01;7.57;;;5.75;;
19149;SDS011;9707;49.158;8.632;2023-12-04T11:04:30;6.30;;;3.88;;
19149;SDS011;9707;49.158;8.632;2023-12-04T11:06:57;8.65;;;4.78;;
19149;SDS011;9707;49.158;8.632;2023-12-04T11:09:24;9.10;;;5.22;;
19149;SDS011;9707;49.158;8.632;2023-12-04T11:11:53;7.40;;;4.32;;
19149;SDS011;9707;49.158;8.632;2023-12-04T11:14:22;5.93;;;4.18;;
19149;SDS011;9707;49.158;8.632;2023-12-04T11:16:54;6.03;;;4.70;;
19149;SDS011;9707;49.158;8.632;2023-12-04T11:19:35;10.48;;;6.68;;
19149;SDS011;9707;49.158;8.632;2023-12-04T11:22:15;7.53;;;4.50;;
19149;SDS011;9707;49.158;8.632;2023-12-04T11:24:45;7.68;;;4.78;;
19149;SDS011;9707;49.158;8.632;2023-12-04T11:27:12;9.98;;;5.75;;
19149;SDS011;9707;49.158;8.632;2023-12-04T11:29:39;8.68;;;4.75;;
19149;SDS011;9707;49.158;8.632;2023-12-04T11:32:07;8.60;;;5.07;;
19149;SDS011;9707;49.158;8.632;2023-12-04T11:34:32;9.68;;;6.05;;
19149;SDS011;9707;49.158;8.632;2023-12-04T11:37:00;6.18;;;4.38;;
19149;SDS011;9707;49.158;8.632;2023-12-04T11:39:27;6.78;;;4.07;;
19149;SDS011;9707;49.158;8.632;2023-12-04T11:41:53;6.30;;;4.30;;
19149;SDS011;9707;49.158;8.632;2023-12-04T11:44:18;9.13;;;6.80;;
19149;SDS011;9707;49.158;8.632;2023-12-04T11:47:04;9.65;;;6.05;;
19149;SDS011;9707;49.158;8.632;2023-12-04T11:49:30;6.20;;;4.32;;
19149;SDS011;9707;49.158;8.632;2023-12-04T11:51:59;7.00;;;4.40;;
19149;SDS011;9707;49.158;8.632;2023-12-04T11:54:26;10.88;;;6.20;;
19149;SDS011;9707;49.158;8.632;2023-12-04T11:56:56;7.28;;;4.03;;
19149;SDS011;9707;49.158;8.632;2023-12-04T11:59:37;5.70;;;4.00;;
19149;SDS011;9707;49.158;8.632;2023-12-04T12:02:02;7.00;;;4.22;;
19149;SDS011;9707;49.158;8.632;2023-12-04T12:04:32;5.90;;;4.32;;
19149;SDS011;9707;49.158;8.632;2023-12-04T12:06:57;5.65;;;4.25;;
19149;SDS011;9707;49.158;8.632;2023-12-04T12:09:23;7.15;;;5.00;;
19149;SDS011;9707;49.158;8.632;2023-12-04T12:11:48;6.95;;;4.53;;
19149;SDS011;9707;49.158;8.632;2023-12-04T12:14:14;6.82;;;4.15;;
19149;SDS011;9707;49.158;8.632;2023-12-04T12:16:39;6.00;;;3.60;;
19149;SDS011;9707;49.158;8.632;2023-12-04T12:19:05;5.40;;;3.97;;
19149;SDS011;9707;49.158;8.632;2023-12-04T12:21:30;7.88;;;5.13;;
19149;SDS011;9707;49.158;8.632;2023-12-04T12:23:55;5.60;;;3.75;;
19149;SDS011;9707;49.158;8.632;2023-12-04T12:26:21;6.90;;;4.05;;
19149;SDS011;9707;49.158;8.632;2023-12-04T12:28:46;5.75;;;3.53;;
19149;SDS011;9707;49.158;8.632;2023-12-04T12:31:11;4.57;;;1.90;;
19149;SDS011;9707;49.158;8.632;2023-12-04T12:33:36;3.60;;;2.47;;
19149;SDS011;9707;49.158;8.632;2023-12-04T12:36:02;7.60;;;5.60;;
19149;SDS011;9707;49.158;8.632;2023-12-04T12:38:29;6.72;;;4.63;;
19149;SDS011;9707;49.158;8.632;2023-12-04T12:40:55;10.32;;;7.22;;
19149;SDS011;9707;49.158;8.632;2023-12-04T12:43:20;8.60;;;6.10;;
19149;SDS011;9707;49.158;8.632;2023-12-04T12:45:46;10.45;;;4.68;;
19149;SDS011;9707;49.158;8.632;2023-12-04T12:48:14;9.52;;;5.78;;
19149;SDS011;9707;49.158;8.632;2023-12-04T12:50:41;6.45;;;4.53;;
19149;SDS011;9707;49.158;8.632;2023-12-04T12:53:08;5.82;;;4.85;;
19149;SDS011;9707;49.158;8.632;2023-12-04T12:55:33;8.15;;;5.28;;
19149;SDS011;9707;49.158;8.632;2023-12-04T12:57:58;10.25;;;7.47;;
19149;SDS011;9707;49.158;8.632;2023-12-04T13:00:23;6.63;;;4.15;;
19149;SDS011;9707;49.158;8.632;2023-12-04T13:02:51;6.63;;;4.57;;
19149;SDS011;9707;49.158;8.632;2023-12-04T13:05:18;5.95;;;4.78;;
19149;SDS011;9707;49.158;8.632;2023-12-04T13:07:44;5.13;;;4.22;;
19149;SDS011;9707;49.158;8.632;2023-12-04T13:10:10;8.48;;;5.57;;
19149;SDS011;9707;49.158;8.632;2023-12-04T13:12:36;10.38;;;6.95;;
19149;SDS011;9707;49.158;8.632;2023-12-04T13:15:01;13.63;;;7.88;;
19149;SDS011;9707;49.158;8.632;2023-12-04T13:17:28;7.70;;;5.43;;
19149;SDS011;9707;49.158;8.632;2023-12-04T13:19:53;6.85;;;4.88;;
19149;SDS011;9707;49.158;8.632;2023-12-04T13:22:18;6.60;;;4.05;;
19149;SDS011;9707;49.158;8.632;2023-12-04T13:24:44;8.35;;;5.85;;
19149;SDS011;9707;49.158;8.632;2023-12-04T13:27:09;9.07;;;6.07;;
19149;SDS011;9707;49.158;8.632;2023-12-04T13:29:34;8.07;;;4.90;;
19149;SDS011;9707;49.158;8.632;2023-12-04T13:32:00;12.23;;;7.90;;
19149;SDS011;9707;49.158;8.632;2023-12-04T13:34:25;7.93;;;5.50;;
19149;SDS011;9707;49.158;8.632;2023-12-04T13:36:50;8.80;;;5.95;;
19149;SDS011;9707;49.158;8.632;2023-12-04T13:39:16;8.32;;;5.10;;
19149;SDS011;9707;49.158;8.632;2023-12-04T13:41:43;5.28;;;4.53;;
19149;SDS011;9707;49.158;8.632;2023-12-04T13:44:28;6.57;;;5.28;;
19149;SDS011;9707;49.158;8.632;2023-12-04T13:46:54;5.35;;;3.63;;
19149;SDS011;9707;49.158;8.632;2023-12-04T13:49:20;6.30;;;4.28;;
19149;SDS011;9707;49.158;8.632;2023-12-04T13:51:45;6.82;;;4.30;;
19149;SDS011;9707;49.158;8.632;2023-12-04T13:54:14;6.25;;;3.80;;
19149;SDS011;9707;49.158;8.632;2023-12-04T13:56:49;6.03;;;3.63;;
19149;SDS011;9707;49.158;8.632;2023-12-04T13:59:21;6.82;;;4.50;;
19149;SDS011;9707;49.158;8.632;2023-12-04T14:01:48;6.20;;;4.05;;
19149;SDS011;9707;49.158;8.632;2023-12-04T14:04:19;5.55;;;3.83;;
19149;SDS011;9707;49.158;8.632;2023-12-04T14:06:45;6.97;;;4.18;;
19149;SDS011;9707;49.158;8.632;2023-12-04T14:09:10;5.55;;;3.35;;
19149;SDS011;9707;49.158;8.632;2023-12-04T14:11:39;6.57;;;4.30;;
19149;SDS011;9707;49.158;8.632;2023-12-04T14:14:05;5.88;;;3.83;;
19149;SDS011;9707;49.158;8.632;2023-12-04T14:16:30;5.45;;;3.78;;
19149;SDS011;9707;49.158;8.632;2023-12-04T14:18:56;6.57;;;3.45;;
19149;SDS011;9707;49.158;8.632;2023-12-04T14:21:22;5.30;;;4.00;;
19149;SDS011;9707;49.158;8.632;2023-12-04T14:23:47;5.35;;;3.55;;
19149;SDS011;9707;49.158;8.632;2023-12-04T14:26:12;6.63;;;5.05;;
19149;SDS011;9707;49.158;8.632;2023-12-04T14:28:37;4.93;;;2.50;;
19149;SDS011;9707;49.158;8.632;2023-12-04T14:31:03;6.82;;;4.78;;
19149;SDS011;9707;49.158;8.632;2023-12-04T14:33:29;8.27;;;5.88;;
19149;SDS011;9707;49.158;8.632;2023-12-04T14:35:55;5.68;;;3.55;;
19149;SDS011;9707;49.158;8.632;2023-12-04T14:38:20;5.45;;;3.97;;
19149;SDS011;9707;49.158;8.632;2023-12-04T14:40:45;5.80;;;4.10;;
19149;SDS011;9707;49.158;8.632;2023-12-04T14:43:11;5.80;;;4.00;;
19149;SDS011;9707;49.158;8.632;2023-12-04T14:45:37;7.47;;;3.92;;
19149;SDS011;9707;49.158;8.632;2023-12-04T14:48:03;9.35;;;4.57;;
19149;SDS011;9707;49.158;8.632;2023-12-04T14:50:32;7.47;;;4.68;;